createdAt,value
2022-11-02T00:00:14.848Z,127.06
2022-11-02T00:01:14.886Z,127.06
2022-11-02T00:02:14.945Z,127.06
2022-11-02T00:03:14.861Z,127.06
2022-11-02T00:04:14.860Z,127.06
2022-11-02T00:05:14.858Z,127.06
2022-11-02T00:06:14.855Z,127.06
2022-11-02T00:07:14.849Z,127.06
2022-11-02T00:08:14.860Z,127.06
2022-11-02T00:09:14.860Z,127.06
2022-11-02T00:10:14.860Z,127.06
2022-11-02T00:11:14.855Z,127.06
2022-11-02T00:12:14.860Z,127.06
2022-11-02T00:13:14.863Z,127.06
2022-11-02T00:14:14.865Z,127.06
2022-11-02T00:15:14.876Z,127.06
2022-11-02T00:16:14.868Z,127.06
2022-11-02T00:17:14.868Z,127.06
2022-11-02T00:18:14.889Z,127.06
2022-11-02T00:19:14.861Z,127.06
2022-11-02T00:20:14.872Z,127.06
2022-11-02T00:21:14.873Z,127.06
2022-11-02T00:22:14.864Z,127.06
2022-11-02T00:23:14.883Z,127.06
2022-11-02T00:24:14.873Z,127.06
2022-11-02T00:25:14.872Z,127.06
2022-11-02T00:26:14.882Z,127.06
2022-11-02T00:27:14.878Z,127.06
2022-11-02T00:28:14.886Z,127.06
2022-11-02T00:29:14.887Z,127.06
2022-11-02T00:30:14.869Z,127.06
2022-11-02T00:31:14.875Z,127.06
2022-11-02T00:32:14.878Z,127.06
2022-11-02T00:33:14.879Z,127.06
2022-11-02T00:34:14.912Z,127.06
2022-11-02T00:35:14.884Z,127.06
2022-11-02T00:36:14.882Z,127.06
2022-11-02T00:37:14.896Z,127.06
2022-11-02T00:38:14.892Z,127.06
2022-11-02T00:39:14.899Z,127.06
2022-11-02T00:40:14.894Z,127.06
2022-11-02T00:41:14.883Z,127.06
2022-11-02T00:42:14.896Z,127.06
2022-11-02T00:43:14.891Z,127.06
2022-11-02T00:44:14.889Z,127.06
2022-11-02T00:45:14.895Z,127.06
2022-11-02T00:46:14.885Z,127.06
2022-11-02T00:47:14.905Z,127.06
2022-11-02T00:48:14.902Z,127.06
2022-11-02T00:49:14.902Z,127.06
2022-11-02T00:50:14.923Z,127.06
2022-11-02T00:51:14.887Z,127.06
2022-11-02T00:52:14.895Z,127.06
2022-11-02T00:53:14.904Z,127.06
2022-11-02T00:54:14.903Z,127.06
2022-11-02T00:55:14.910Z,127.06
2022-11-02T00:56:14.903Z,127.06
2022-11-02T00:57:14.907Z,127.06
2022-11-02T00:58:14.908Z,127.06
2022-11-02T00:59:14.898Z,127.06
2022-11-02T01:00:14.907Z,127.06
2022-11-02T01:01:15.016Z,127.06
2022-11-02T01:02:15.024Z,127.06
2022-11-02T01:03:14.919Z,127.06
2022-11-02T01:04:14.911Z,127.06
2022-11-02T01:05:14.895Z,127.06
2022-11-02T01:06:14.936Z,127.06
2022-11-02T01:07:14.922Z,127.06
2022-11-02T01:08:14.912Z,127.06
2022-11-02T01:09:14.902Z,127.06
2022-11-02T01:10:14.904Z,127.06
2022-11-02T01:11:14.920Z,127.06
2022-11-02T01:12:14.921Z,127.06
2022-11-02T01:13:14.912Z,127.06
2022-11-02T01:14:14.906Z,127.06
2022-11-02T01:15:14.913Z,127.06
2022-11-02T01:16:14.911Z,127.06
2022-11-02T01:17:14.914Z,127.06
2022-11-02T01:18:14.913Z,127.06
2022-11-02T01:19:14.911Z,127.06
2022-11-02T01:20:14.920Z,127.06
2022-11-02T01:21:14.919Z,127.06
2022-11-02T01:22:14.963Z,127.06
2022-11-02T01:23:14.914Z,127.06
2022-11-02T01:24:14.918Z,127.06
2022-11-02T01:25:14.928Z,127.06
2022-11-02T01:26:14.917Z,127.06
2022-11-02T01:27:14.913Z,127.06
2022-11-02T01:28:14.922Z,127.06
2022-11-02T01:29:14.944Z,127.06
2022-11-02T01:30:14.915Z,127.06
2022-11-02T01:31:14.927Z,127.06
2022-11-02T01:32:14.930Z,127.06
2022-11-02T01:33:14.920Z,127.06
2022-11-02T01:34:14.929Z,127.06
2022-11-02T01:35:14.917Z,127.06
2022-11-02T01:36:14.981Z,127.06
2022-11-02T01:37:14.926Z,127.06
2022-11-02T01:38:14.954Z,127.06
2022-11-02T01:39:14.918Z,127.06
2022-11-02T01:40:14.933Z,127.06
2022-11-02T01:41:14.924Z,127.06
2022-11-02T01:42:14.935Z,127.06
2022-11-02T01:43:14.917Z,127.06
2022-11-02T01:44:14.922Z,127.06
2022-11-02T01:45:14.928Z,127.06
2022-11-02T01:46:14.929Z,127.06
2022-11-02T01:47:14.933Z,127.06
2022-11-02T01:48:14.923Z,127.06
2022-11-02T01:49:14.922Z,127.06
2022-11-02T01:50:14.917Z,127.06
2022-11-02T01:51:14.922Z,127.06
2022-11-02T01:52:14.930Z,127.06
2022-11-02T01:53:14.928Z,127.06
2022-11-02T01:54:14.955Z,127.06
2022-11-02T01:55:14.936Z,127.06
2022-11-02T01:56:15.002Z,127.06
2022-11-02T01:57:14.938Z,127.06
2022-11-02T01:58:14.937Z,127.06
2022-11-02T01:59:14.943Z,127.06
2022-11-02T02:00:14.944Z,127.06
2022-11-02T02:01:15.016Z,127.06
2022-11-02T02:02:15.043Z,127.06
2022-11-02T02:03:14.947Z,127.06
2022-11-02T02:04:14.946Z,127.06
2022-11-02T02:05:14.948Z,127.06
2022-11-02T02:06:14.952Z,127.06
2022-11-02T02:07:14.954Z,127.06
2022-11-02T02:08:14.954Z,127.06
2022-11-02T02:09:14.956Z,127.06
2022-11-02T02:10:14.980Z,127.06
2022-11-02T02:11:14.961Z,127.06
2022-11-02T02:12:14.953Z,127.06
2022-11-02T02:13:14.952Z,127.06
2022-11-02T02:14:14.956Z,127.06
2022-11-02T02:15:14.958Z,127.06
2022-11-02T02:16:14.963Z,127.06
2022-11-02T02:17:14.975Z,127.06
2022-11-02T02:18:14.963Z,127.06
2022-11-02T02:19:14.966Z,127.06
2022-11-02T02:20:14.976Z,127.06
2022-11-02T02:21:14.974Z,127.06
2022-11-02T02:22:14.982Z,127.06
2022-11-02T02:23:14.978Z,127.06
2022-11-02T02:24:14.979Z,127.06
2022-11-02T02:25:14.986Z,127.06
2022-11-02T02:26:15.009Z,127.06
2022-11-02T02:27:14.980Z,127.06
2022-11-02T02:28:14.983Z,127.06
2022-11-02T02:29:14.994Z,127.06
2022-11-02T02:30:14.988Z,127.06
2022-11-02T02:31:14.989Z,127.06
2022-11-02T02:32:15.002Z,127.06
2022-11-02T02:33:15.001Z,127.06
2022-11-02T02:34:15.005Z,127.06
2022-11-02T02:35:14.994Z,127.06
2022-11-02T02:36:14.997Z,127.06
2022-11-02T02:37:15.019Z,127.06
2022-11-02T02:38:15.005Z,127.06
2022-11-02T02:39:14.992Z,127.06
2022-11-02T02:40:15.005Z,127.06
2022-11-02T02:41:15.029Z,127.06
2022-11-02T02:42:15.058Z,127.06
2022-11-02T02:43:15.004Z,127.06
2022-11-02T02:44:15.006Z,127.06
2022-11-02T02:45:15.018Z,127.06
2022-11-02T02:46:15.025Z,127.06
2022-11-02T02:47:15.010Z,127.06
2022-11-02T02:48:15.010Z,127.06
2022-11-02T02:49:15.012Z,127.06
2022-11-02T02:50:15.022Z,127.06
2022-11-02T02:51:15.018Z,127.06
2022-11-02T02:52:15.016Z,127.06
2022-11-02T02:53:15.015Z,127.06
2022-11-02T02:54:15.023Z,127.06
2022-11-02T02:55:15.012Z,127.06
2022-11-02T02:56:15.013Z,127.06
2022-11-02T02:57:15.022Z,127.06
2022-11-02T02:58:15.043Z,127.06
2022-11-02T02:59:15.009Z,127.06
2022-11-02T03:00:15.026Z,127.06
2022-11-02T03:01:15.144Z,127.06
2022-11-02T03:02:15.114Z,127.06
2022-11-02T03:03:15.024Z,127.06
2022-11-02T03:04:15.036Z,127.06
2022-11-02T03:05:15.032Z,127.06
2022-11-02T03:06:15.032Z,127.06
2022-11-02T03:07:15.029Z,127.06
2022-11-02T03:08:15.049Z,127.06
2022-11-02T03:09:15.041Z,127.06
2022-11-02T03:10:15.042Z,127.06
2022-11-02T03:11:15.051Z,127.06
2022-11-02T03:12:15.036Z,127.06
2022-11-02T03:13:15.033Z,127.06
2022-11-02T03:14:15.068Z,127.06
2022-11-02T03:15:15.034Z,127.06
2022-11-02T03:16:15.038Z,127.06
2022-11-02T03:17:15.050Z,127.06
2022-11-02T03:18:15.044Z,127.06
2022-11-02T03:19:15.047Z,127.06
2022-11-02T03:20:15.046Z,127.06
2022-11-02T03:21:15.042Z,127.06
2022-11-02T03:22:15.055Z,127.06
2022-11-02T03:23:15.049Z,127.06
2022-11-02T03:24:15.035Z,127.06
2022-11-02T03:25:15.062Z,127.06
2022-11-02T03:26:15.054Z,127.06
2022-11-02T03:27:15.051Z,127.06
2022-11-02T03:28:15.055Z,127.06
2022-11-02T03:29:15.072Z,127.06
2022-11-02T03:30:15.081Z,127.06
2022-11-02T03:31:15.053Z,127.06
2022-11-02T03:32:15.061Z,127.06
2022-11-02T03:33:15.063Z,127.06
2022-11-02T03:34:15.059Z,127.06
2022-11-02T03:35:15.068Z,127.06
2022-11-02T03:36:15.066Z,127.06
2022-11-02T03:37:15.073Z,127.06
2022-11-02T03:38:15.072Z,127.06
2022-11-02T03:39:15.071Z,127.06
2022-11-02T03:40:15.069Z,127.06
2022-11-02T03:41:15.078Z,127.06
2022-11-02T03:42:15.073Z,127.06
2022-11-02T03:43:15.079Z,127.06
2022-11-02T03:44:15.089Z,127.06
2022-11-02T03:45:15.073Z,127.06
2022-11-02T03:46:15.104Z,127.06
2022-11-02T03:47:15.095Z,127.06
2022-11-02T03:48:15.086Z,127.06
2022-11-02T03:49:15.078Z,127.06
2022-11-02T03:50:15.082Z,127.06
2022-11-02T03:51:15.073Z,127.06
2022-11-02T03:52:15.075Z,127.06
2022-11-02T03:53:15.076Z,127.06
2022-11-02T03:54:15.096Z,127.06
2022-11-02T03:55:15.090Z,127.06
2022-11-02T03:56:15.086Z,127.06
2022-11-02T03:57:15.084Z,127.06
2022-11-02T03:58:15.087Z,127.06
2022-11-02T03:59:15.088Z,127.06
2022-11-02T04:00:15.093Z,127.06
2022-11-02T04:01:15.128Z,127.06
2022-11-02T04:02:15.203Z,127.06
2022-11-02T04:03:15.091Z,127.06
2022-11-02T04:04:15.100Z,127.06
2022-11-02T04:05:15.104Z,127.06
2022-11-02T04:06:15.110Z,127.06
2022-11-02T04:07:15.098Z,127.06
2022-11-02T04:08:15.100Z,127.06
2022-11-02T04:09:15.109Z,127.06
2022-11-02T04:10:15.100Z,127.06
2022-11-02T04:11:15.105Z,127.06
2022-11-02T04:12:15.116Z,127.06
2022-11-02T04:13:15.116Z,127.06
2022-11-02T04:14:15.110Z,127.06
2022-11-02T04:15:15.116Z,127.06
2022-11-02T04:16:15.114Z,127.06
2022-11-02T04:17:15.108Z,127.06
2022-11-02T04:18:15.125Z,127.06
2022-11-02T04:19:15.112Z,127.06
2022-11-02T04:20:15.118Z,127.06
2022-11-02T04:21:15.112Z,127.06
2022-11-02T04:22:15.134Z,127.06
2022-11-02T04:23:15.126Z,127.06
2022-11-02T04:24:15.122Z,127.06
2022-11-02T04:25:15.114Z,127.06
2022-11-02T04:26:15.123Z,127.06
2022-11-02T04:27:18.220Z,127.06
2022-11-02T04:28:15.125Z,127.06
2022-11-02T04:29:15.121Z,127.06
2022-11-02T04:30:15.133Z,127.06
2022-11-02T04:31:15.127Z,127.06
2022-11-02T04:32:15.124Z,127.06
2022-11-02T04:33:15.124Z,127.06
2022-11-02T04:34:15.158Z,127.06
2022-11-02T04:35:15.134Z,127.06
2022-11-02T04:36:15.141Z,127.06
2022-11-02T04:37:15.137Z,127.06
2022-11-02T04:38:15.133Z,127.06
2022-11-02T04:39:15.136Z,127.06
2022-11-02T04:40:15.142Z,127.06
2022-11-02T04:41:15.145Z,127.06
2022-11-02T04:42:15.150Z,127.06
2022-11-02T04:43:15.144Z,127.06
2022-11-02T04:44:15.153Z,127.06
2022-11-02T04:45:15.149Z,127.06
2022-11-02T04:46:15.155Z,127.06
2022-11-02T04:47:15.157Z,127.06
2022-11-02T04:48:15.154Z,127.06
2022-11-02T04:49:15.151Z,127.06
2022-11-02T04:50:15.178Z,127.06
2022-11-02T04:51:15.158Z,127.06
2022-11-02T04:52:15.161Z,127.06
2022-11-02T04:53:15.164Z,127.06
2022-11-02T04:54:15.167Z,127.06
2022-11-02T04:55:15.155Z,127.06
2022-11-02T04:56:15.164Z,127.06
2022-11-02T04:57:15.167Z,127.06
2022-11-02T04:58:15.173Z,127.06
2022-11-02T04:59:15.178Z,127.06
2022-11-02T05:00:15.167Z,127.06
2022-11-02T05:01:15.393Z,127.06
2022-11-02T05:02:15.241Z,127.06
2022-11-02T05:03:15.175Z,127.06
2022-11-02T05:04:15.172Z,127.06
2022-11-02T05:05:15.181Z,127.06
2022-11-02T05:06:15.214Z,127.06
2022-11-02T05:07:15.177Z,127.06
2022-11-02T05:08:15.171Z,127.06
2022-11-02T05:09:15.173Z,127.06
2022-11-02T05:10:15.190Z,127.06
2022-11-02T05:11:15.188Z,127.06
2022-11-02T05:12:15.187Z,127.06
2022-11-02T05:13:15.192Z,127.06
2022-11-02T05:14:15.199Z,127.06
2022-11-02T05:15:15.186Z,127.06
2022-11-02T05:16:15.191Z,127.06
2022-11-02T05:17:15.179Z,127.06
2022-11-02T05:18:18.756Z,127.06
2022-11-02T05:19:15.183Z,127.06
2022-11-02T05:20:15.193Z,127.06
2022-11-02T05:21:15.190Z,127.06
2022-11-02T05:22:15.215Z,127.06
2022-11-02T05:23:15.185Z,127.06
2022-11-02T05:24:15.193Z,127.06
2022-11-02T05:25:15.186Z,127.06
2022-11-02T05:26:15.189Z,127.06
2022-11-02T05:27:15.182Z,127.06
2022-11-02T05:28:15.188Z,127.06
2022-11-02T05:29:15.196Z,127.06
2022-11-02T05:30:15.201Z,127.06
2022-11-02T05:31:15.195Z,127.06
2022-11-02T05:32:15.198Z,127.06
2022-11-02T05:33:15.194Z,127.06
2022-11-02T05:34:15.203Z,127.06
2022-11-02T05:35:15.205Z,127.06
2022-11-02T05:36:15.218Z,127.06
2022-11-02T05:37:15.207Z,127.06
2022-11-02T05:38:15.220Z,127.06
2022-11-02T05:39:15.215Z,127.06
2022-11-02T05:40:15.197Z,127.06
2022-11-02T05:41:15.209Z,127.06
2022-11-02T05:42:15.206Z,127.06
2022-11-02T05:43:15.209Z,127.06
2022-11-02T05:44:15.201Z,127.06
2022-11-02T05:45:16.540Z,127.06
2022-11-02T05:46:15.216Z,127.06
2022-11-02T05:47:15.206Z,127.06
2022-11-02T05:48:15.218Z,127.06
2022-11-02T05:49:15.214Z,127.06
2022-11-02T05:50:15.220Z,127.06
2022-11-02T05:51:15.220Z,127.06
2022-11-02T05:52:15.219Z,127.06
2022-11-02T05:53:15.217Z,127.06
2022-11-02T05:54:15.239Z,127.06
2022-11-02T05:55:15.222Z,127.06
2022-11-02T05:56:16.583Z,127.06
2022-11-02T05:57:15.216Z,127.06
2022-11-02T05:58:15.222Z,127.06
2022-11-02T05:59:15.226Z,127.06
2022-11-02T06:00:15.223Z,127.06
2022-11-02T06:01:15.266Z,127.06
2022-11-02T06:02:15.228Z,127.06
2022-11-02T06:03:15.233Z,127.06
2022-11-02T06:04:15.254Z,127.06
2022-11-02T06:05:15.291Z,127.06
2022-11-02T06:06:15.225Z,127.06
2022-11-02T06:07:15.222Z,127.06
2022-11-02T06:08:15.228Z,127.06
2022-11-02T06:09:15.230Z,127.06
2022-11-02T06:10:15.255Z,127.06
2022-11-02T06:11:15.245Z,127.06
2022-11-02T06:12:15.235Z,127.06
2022-11-02T06:13:15.235Z,127.06
2022-11-02T06:14:15.242Z,127.06
2022-11-02T06:15:15.238Z,127.06
2022-11-02T06:16:18.688Z,127.06
2022-11-02T06:17:15.242Z,127.06
2022-11-02T06:18:15.247Z,127.06
2022-11-02T06:20:15.244Z,127.06
2022-11-02T06:21:15.241Z,127.06
2022-11-02T06:22:15.241Z,127.06
2022-11-02T06:23:15.249Z,127.06
2022-11-02T06:24:15.243Z,127.06
2022-11-02T06:25:15.244Z,127.06
2022-11-02T06:26:15.312Z,127.06
2022-11-02T06:27:15.247Z,127.06
2022-11-02T06:28:15.240Z,127.06
2022-11-02T06:29:15.244Z,127.06
2022-11-02T06:30:15.239Z,127.06
2022-11-02T06:31:15.250Z,127.06
2022-11-02T06:32:15.242Z,127.06
2022-11-02T06:33:15.239Z,127.06
2022-11-02T06:34:15.240Z,127.06
2022-11-02T06:35:15.241Z,127.06
2022-11-02T06:36:15.240Z,127.06
2022-11-02T06:37:15.249Z,127.06
2022-11-02T06:38:15.243Z,127.06
2022-11-02T06:39:15.239Z,127.06
2022-11-02T06:40:15.242Z,127.06
2022-11-02T06:41:15.251Z,127.06
2022-11-02T06:42:15.262Z,127.06
2022-11-02T06:43:16.837Z,127.06
2022-11-02T06:44:15.244Z,127.06
2022-11-02T06:45:15.249Z,127.06
2022-11-02T06:46:15.243Z,127.06
2022-11-02T06:47:15.234Z,127.06
2022-11-02T06:48:15.251Z,127.06
2022-11-02T06:49:15.251Z,127.06
2022-11-02T06:50:15.242Z,127.06
2022-11-02T06:51:15.248Z,127.06
2022-11-02T06:52:15.251Z,127.06
2022-11-02T06:53:15.244Z,127.06
2022-11-02T06:54:15.245Z,127.06
2022-11-02T06:55:15.259Z,127.06
2022-11-02T06:56:15.249Z,127.06
2022-11-02T06:57:15.252Z,127.06
2022-11-02T06:58:15.277Z,127.06
2022-11-02T06:59:15.262Z,127.06
2022-11-02T07:00:16.504Z,127.06
2022-11-02T07:01:15.432Z,127.06
2022-11-02T07:02:15.270Z,127.06
2022-11-02T07:03:15.261Z,127.06
2022-11-02T07:04:15.262Z,127.06
2022-11-02T07:05:15.255Z,127.06
2022-11-02T07:06:15.267Z,127.06
2022-11-02T07:07:15.265Z,127.06
2022-11-02T07:08:15.275Z,127.06
2022-11-02T07:09:15.268Z,127.06
2022-11-02T07:10:15.260Z,127.06
2022-11-02T07:11:15.263Z,127.06
2022-11-02T07:12:18.127Z,127.06
2022-11-02T07:13:15.273Z,127.06
2022-11-02T07:14:15.288Z,127.06
2022-11-02T07:15:15.264Z,127.06
2022-11-02T07:16:15.281Z,127.06
2022-11-02T07:17:15.270Z,127.06
2022-11-02T07:18:15.283Z,127.06
2022-11-02T07:19:15.266Z,127.06
2022-11-02T07:20:15.276Z,127.06
2022-11-02T07:21:15.313Z,127.06
2022-11-02T07:22:15.287Z,127.06
2022-11-02T07:23:15.283Z,127.06
2022-11-02T07:24:15.291Z,127.06
2022-11-02T07:25:15.297Z,127.06
2022-11-02T07:26:15.290Z,127.06
2022-11-02T07:27:15.296Z,127.06
2022-11-02T07:28:15.283Z,127.06
2022-11-02T07:29:15.304Z,127.06
2022-11-02T07:30:15.316Z,127.06
2022-11-02T07:31:15.294Z,127.06
2022-11-02T07:32:15.292Z,127.06
2022-11-02T07:33:15.307Z,127.06
2022-11-02T07:34:17.065Z,127.06
2022-11-02T07:35:15.303Z,127.06
2022-11-02T07:36:15.291Z,127.06
2022-11-02T07:37:15.291Z,127.06
2022-11-02T07:38:15.302Z,127.06
2022-11-02T07:39:15.305Z,127.06
2022-11-02T07:40:15.292Z,127.06
2022-11-02T07:41:15.293Z,127.06
2022-11-02T07:42:15.307Z,127.06
2022-11-02T07:43:15.309Z,127.06
2022-11-02T07:44:15.308Z,127.06
2022-11-02T07:45:15.300Z,127.06
2022-11-02T07:46:15.322Z,127.06
2022-11-02T07:47:15.303Z,127.06
2022-11-02T07:48:15.305Z,127.06
2022-11-02T07:49:20.308Z,127.06
2022-11-02T07:50:15.302Z,127.06
2022-11-02T07:51:15.309Z,127.06
2022-11-02T07:52:15.308Z,127.06
2022-11-02T07:53:15.318Z,127.06
2022-11-02T07:54:15.317Z,127.06
2022-11-02T07:55:15.309Z,127.06
2022-11-02T07:56:15.299Z,127.06
2022-11-02T07:57:15.325Z,127.06
2022-11-02T07:58:15.316Z,127.06
2022-11-02T07:59:15.338Z,127.06
2022-11-02T08:00:15.317Z,127.06
2022-11-02T08:01:15.397Z,127.06
2022-11-02T08:02:15.338Z,127.06
2022-11-02T08:03:15.430Z,127.06
2022-11-02T08:04:15.372Z,127.06
2022-11-02T08:05:15.325Z,127.06
2022-11-02T08:06:15.316Z,127.06
2022-11-02T08:07:15.326Z,127.06
2022-11-02T08:08:15.320Z,127.06
2022-11-02T08:09:15.317Z,127.06
2022-11-02T08:10:15.318Z,127.06
2022-11-02T08:11:15.322Z,127.06
2022-11-02T08:12:15.327Z,127.06
2022-11-02T08:13:15.336Z,127.06
2022-11-02T08:14:15.331Z,127.06
2022-11-02T08:15:15.315Z,127.06
2022-11-02T08:16:15.332Z,127.06
2022-11-02T08:17:15.341Z,127.06
2022-11-02T08:18:15.368Z,127.06
2022-11-02T08:19:15.330Z,127.06
2022-11-02T08:20:15.332Z,127.06
2022-11-02T08:21:15.338Z,127.06
2022-11-02T08:22:15.350Z,127.06
2022-11-02T08:23:15.342Z,201.88
2022-11-02T08:24:15.345Z,206.12
2022-11-02T08:26:15.336Z,208.94
2022-11-02T08:27:15.349Z,177.88
2022-11-02T08:28:15.359Z,177.88
2022-11-02T08:29:15.353Z,177.88
2022-11-02T08:30:15.346Z,182.12
2022-11-02T08:31:15.351Z,183.53
2022-11-02T08:32:15.348Z,172.24
2022-11-02T08:33:15.349Z,128.47
2022-11-02T08:34:15.372Z,166.59
2022-11-02T08:35:15.346Z,153.88
2022-11-02T08:36:15.355Z,153.88
2022-11-02T08:37:15.358Z,153.88
2022-11-02T08:38:15.353Z,153.88
2022-11-02T08:39:18.795Z,153.88
2022-11-02T08:40:15.366Z,153.88
2022-11-02T08:41:15.364Z,153.88
2022-11-02T08:42:15.360Z,153.88
2022-11-02T08:43:15.374Z,153.88
2022-11-02T08:44:15.363Z,153.88
2022-11-02T08:45:15.371Z,153.88
2022-11-02T08:46:16.729Z,153.88
2022-11-02T08:47:15.363Z,153.88
2022-11-02T08:48:15.363Z,153.88
2022-11-02T08:49:15.367Z,153.88
2022-11-02T08:50:15.393Z,153.88
2022-11-02T08:51:15.368Z,153.88
2022-11-02T08:52:15.380Z,153.88
2022-11-02T08:53:15.373Z,153.88
2022-11-02T08:54:15.364Z,153.88
2022-11-02T08:55:15.384Z,153.88
2022-11-02T08:56:15.373Z,153.88
2022-11-02T08:57:15.378Z,153.88
2022-11-02T08:58:15.373Z,153.88
2022-11-02T08:59:15.375Z,153.88
2022-11-02T09:00:15.383Z,153.88
2022-11-02T09:01:15.455Z,153.88
2022-11-02T09:02:15.485Z,153.88
2022-11-02T09:03:15.378Z,153.88
2022-11-02T09:04:15.371Z,153.88
2022-11-02T09:05:15.381Z,153.88
2022-11-02T09:06:15.397Z,153.88
2022-11-02T09:07:15.383Z,262.59
2022-11-02T09:08:15.432Z,264
2022-11-02T09:09:15.384Z,272.47
2022-11-02T09:10:15.381Z,324.71
2022-11-02T09:11:15.384Z,295.06
2022-11-02T09:12:15.381Z,314.82
2022-11-02T09:13:15.385Z,11.29
2022-11-02T09:14:15.486Z,307.76
2022-11-02T09:15:15.386Z,304.94
2022-11-02T09:16:15.381Z,306.35
2022-11-02T09:17:15.395Z,307.76
2022-11-02T09:18:15.390Z,317.65
2022-11-02T09:19:15.390Z,320.47
2022-11-02T09:20:15.398Z,296.47
2022-11-02T09:21:15.394Z,326.12
2022-11-02T09:22:15.415Z,288
2022-11-02T09:23:15.392Z,293.65
2022-11-02T09:24:15.394Z,292.24
2022-11-02T09:25:15.400Z,296.47
2022-11-02T09:26:15.395Z,334.59
2022-11-02T09:27:15.392Z,288
2022-11-02T09:28:15.535Z,285.18
2022-11-02T09:29:15.462Z,293.65
2022-11-02T09:30:15.446Z,295.06
2022-11-02T09:31:15.406Z,290.82
2022-11-02T09:32:15.403Z,288
2022-11-02T09:33:15.418Z,292.24
2022-11-02T09:34:15.410Z,292.24
2022-11-02T09:35:15.408Z,309.18
2022-11-02T09:36:15.406Z,283.76
2022-11-02T09:37:15.417Z,328.94
2022-11-02T09:38:15.428Z,282.35
2022-11-02T09:39:15.412Z,358.59
2022-11-02T09:40:15.430Z,352.94
2022-11-02T09:41:15.416Z,4.24
2022-11-02T09:42:15.410Z,295.06
2022-11-02T09:43:15.416Z,334.59
2022-11-02T09:44:15.444Z,302.12
2022-11-02T09:45:15.432Z,295.06
2022-11-02T09:46:15.421Z,343.06
2022-11-02T09:47:56.215Z,57.88
2022-11-02T09:48:17.884Z,76.24
2022-11-02T09:49:15.430Z,59.29
2022-11-02T09:50:15.489Z,59.29
2022-11-02T09:51:15.422Z,26.82
2022-11-02T09:52:15.444Z,11.29
2022-11-02T09:53:15.422Z,11.29
2022-11-02T09:54:17.553Z,11.29
2022-11-02T09:55:15.455Z,11.29
2022-11-02T09:56:15.450Z,11.29
2022-11-02T09:57:15.433Z,11.29
2022-11-02T09:58:15.434Z,11.29
2022-11-02T09:59:15.465Z,11.29
2022-11-02T10:00:15.450Z,11.29
2022-11-02T10:01:15.537Z,11.29
2022-11-02T10:02:15.521Z,11.29
2022-11-02T10:03:15.486Z,11.29
2022-11-02T10:04:15.448Z,11.29
2022-11-02T10:05:15.460Z,11.29
2022-11-02T10:06:15.435Z,11.29
2022-11-02T10:07:15.464Z,11.29
2022-11-02T10:08:15.474Z,11.29
2022-11-02T10:09:15.437Z,11.29
2022-11-02T10:10:15.550Z,11.29
2022-11-02T10:11:15.468Z,11.29
2022-11-02T10:12:15.478Z,11.29
2022-11-02T10:13:15.471Z,11.29
2022-11-02T10:14:15.478Z,11.29
2022-11-02T10:15:15.496Z,11.29
2022-11-02T10:16:15.434Z,11.29
2022-11-02T10:17:15.508Z,11.29
2022-11-02T10:18:15.476Z,11.29
2022-11-02T10:19:15.483Z,11.29
2022-11-02T10:20:15.451Z,11.29
2022-11-02T10:21:15.518Z,11.29
2022-11-02T10:22:15.448Z,11.29
2022-11-02T10:23:15.452Z,11.29
2022-11-02T10:24:15.479Z,163.76
2022-11-02T10:25:15.488Z,125.65
2022-11-02T10:26:15.491Z,210.35
2022-11-02T10:27:15.511Z,210.35
2022-11-02T10:28:15.608Z,210.35
2022-11-02T10:29:15.507Z,210.35
2022-11-02T10:30:15.484Z,210.35
2022-11-02T10:31:15.842Z,210.35
2022-11-02T10:32:15.476Z,210.35
2022-11-02T10:33:15.494Z,175.06
2022-11-02T10:34:15.486Z,172.24
2022-11-02T10:35:33.799Z,172.24
2022-11-02T10:36:18.379Z,172.24
2022-11-02T10:37:15.501Z,172.24
2022-11-02T10:38:15.982Z,172.24
2022-11-02T10:39:15.477Z,172.24
2022-11-02T10:40:15.535Z,172.24
2022-11-02T10:41:15.499Z,172.24
2022-11-02T10:42:15.538Z,172.24
2022-11-02T10:43:15.557Z,172.24
2022-11-02T10:44:15.481Z,172.24
2022-11-02T10:45:15.476Z,172.24
2022-11-02T10:46:15.495Z,172.24
2022-11-02T10:47:15.468Z,62.12
2022-11-02T10:48:15.534Z,62.12
2022-11-02T10:49:15.528Z,94.59
2022-11-02T10:50:15.495Z,87.53
2022-11-02T10:51:15.510Z,88.94
2022-11-02T10:52:15.507Z,88.94
2022-11-02T10:53:39.280Z,88.94
2022-11-02T10:54:17.001Z,88.94
2022-11-02T10:55:15.479Z,261.18
2022-11-02T10:56:15.513Z,265.41
2022-11-02T10:57:15.494Z,288
2022-11-02T10:58:15.502Z,310.59
2022-11-02T10:59:15.507Z,300.71
2022-11-02T11:00:15.492Z,320.47
2022-11-02T11:01:15.650Z,312
2022-11-02T11:02:15.475Z,293.65
2022-11-02T11:03:15.497Z,293.65
2022-11-02T11:04:15.508Z,81.88
2022-11-02T11:05:15.477Z,81.88
2022-11-02T11:06:15.484Z,81.88
2022-11-02T11:07:15.485Z,81.88
2022-11-02T11:08:15.467Z,81.88
2022-11-02T11:09:15.503Z,316.24
2022-11-02T11:10:15.482Z,282.35
2022-11-02T11:11:15.489Z,293.65
2022-11-02T11:12:15.482Z,290.82
2022-11-02T11:16:17.658Z,235.76
2022-11-02T11:20:15.488Z,299.29
2022-11-02T11:21:15.485Z,258.35
2022-11-02T11:22:15.487Z,258.35
2022-11-02T11:23:15.558Z,258.35
2022-11-02T11:24:15.526Z,290.82
2022-11-02T11:25:15.487Z,290.82
2022-11-02T11:26:15.494Z,285.18
2022-11-02T11:27:15.492Z,296.47
2022-11-02T11:28:15.484Z,278.12
2022-11-02T11:29:15.485Z,293.65
2022-11-02T11:30:20.665Z,269.65
2022-11-02T11:31:15.481Z,271.06
2022-11-02T11:32:15.492Z,271.06
2022-11-02T11:33:15.500Z,36.71
2022-11-02T11:34:15.488Z,35.29
2022-11-02T11:35:15.487Z,28.24
2022-11-02T11:36:15.567Z,280.94
2022-11-02T11:37:15.487Z,282.35
2022-11-02T11:38:15.488Z,288
2022-11-02T11:39:15.513Z,264
2022-11-02T11:40:15.491Z,288
2022-11-02T11:41:15.492Z,288
2022-11-02T11:42:15.484Z,1.41
2022-11-02T11:43:15.497Z,31.06
2022-11-02T11:44:15.491Z,297.88
2022-11-02T11:45:15.491Z,324.71
2022-11-02T11:46:15.514Z,290.82
2022-11-02T11:47:15.490Z,295.06
2022-11-02T11:48:15.489Z,299.29
2022-11-02T11:49:15.499Z,299.29
2022-11-02T11:50:17.372Z,293.65
2022-11-02T11:51:15.492Z,324.71
2022-11-02T11:52:15.495Z,300.71
2022-11-02T11:53:15.494Z,297.88
2022-11-02T11:54:15.494Z,309.18
2022-11-02T11:55:15.500Z,317.65
2022-11-02T11:56:15.493Z,297.88
2022-11-02T11:57:15.493Z,289.41
2022-11-02T11:58:15.503Z,296.47
2022-11-02T11:59:15.500Z,265.41
2022-11-02T12:00:15.539Z,286.59
2022-11-02T12:01:15.583Z,259.76
2022-11-02T12:02:15.648Z,278.12
2022-11-02T12:03:15.557Z,302.12
2022-11-02T12:04:15.512Z,279.53
2022-11-02T12:05:15.504Z,286.59
2022-11-02T12:06:15.500Z,282.35
2022-11-02T12:07:15.505Z,264
2022-11-02T12:08:15.503Z,296.47
2022-11-02T12:09:15.510Z,279.53
2022-11-02T12:10:15.598Z,262.59
2022-11-02T12:11:18.872Z,249.88
2022-11-02T12:12:15.511Z,290.82
2022-11-02T12:13:15.509Z,255.53
2022-11-02T12:14:15.511Z,271.06
2022-11-02T12:15:15.503Z,289.41
2022-11-02T12:16:15.514Z,279.53
2022-11-02T12:17:15.517Z,268.24
2022-11-02T12:18:15.525Z,240
2022-11-02T12:19:15.516Z,264
2022-11-02T12:20:15.524Z,265.41
2022-11-02T12:21:15.520Z,282.35
2022-11-02T12:22:15.515Z,269.65
2022-11-02T12:23:15.515Z,279.53
2022-11-02T12:24:15.508Z,266.82
2022-11-02T12:25:15.523Z,261.18
2022-11-02T12:26:15.514Z,288
2022-11-02T12:27:15.515Z,288
2022-11-02T12:28:15.514Z,283.76
2022-11-02T12:29:15.521Z,258.35
2022-11-02T12:30:15.520Z,292.24
2022-11-02T12:31:15.532Z,280.94
2022-11-02T12:32:15.518Z,271.06
2022-11-02T12:33:15.515Z,276.71
2022-11-02T12:34:15.547Z,286.59
2022-11-02T12:35:28.169Z,280.94
2022-11-02T12:36:15.523Z,265.41
2022-11-02T12:37:35.665Z,258.35
2022-11-02T12:38:15.519Z,271.06
2022-11-02T12:39:15.521Z,283.76